createdAt,value
2022-11-23T00:00:41.207Z,96940.63
2022-11-23T00:03:07.957Z,96949.31
2022-11-23T00:05:34.642Z,96940.66
2022-11-23T00:08:02.084Z,96941.41
2022-11-23T00:10:28.789Z,96948.28
2022-11-23T00:12:55.464Z,96953.66
2022-11-23T00:15:22.185Z,96940.84
2022-11-23T00:17:48.930Z,96947.88
2022-11-23T00:20:15.858Z,96959.78
2022-11-23T00:22:42.642Z,96948.88
2022-11-23T00:25:09.626Z,96946.25
2022-11-23T00:27:36.292Z,96947.72
2022-11-23T00:30:03.131Z,96952.28
2022-11-23T00:32:30.245Z,96955.91
2022-11-23T00:34:58.498Z,96952.31
2022-11-23T00:37:25.181Z,96955.22
2022-11-23T00:39:54.543Z,96954.13
2022-11-23T00:42:21.385Z,96964.78
2022-11-23T00:44:48.088Z,96961.25
2022-11-23T00:47:14.767Z,96958.78
2022-11-23T00:49:41.390Z,96954.31
2022-11-23T00:52:08.068Z,96957.78
2022-11-23T00:54:34.852Z,96961.25
2022-11-23T00:57:01.888Z,96956.94
2022-11-23T00:59:29.891Z,96957.78
2022-11-23T01:01:56.996Z,96952.53
2022-11-23T01:04:23.718Z,96956.72
2022-11-23T01:06:50.404Z,96958.59
2022-11-23T01:09:18.679Z,96963.75
2022-11-23T01:11:48.881Z,96952.19
2022-11-23T01:14:15.613Z,96955.09
2022-11-23T01:16:42.350Z,96960.50
2022-11-23T01:19:15.669Z,96961.34
2022-11-23T01:21:42.825Z,96957.69
2022-11-23T01:24:16.456Z,96968.16
2022-11-23T01:26:44.214Z,96967.19
2022-11-23T01:29:11.753Z,96971.31
2022-11-23T01:31:46.250Z,96974.00
2022-11-23T01:34:15.457Z,96971.31
2022-11-23T01:36:43.135Z,96974.13
2022-11-23T01:39:10.891Z,96974.06
2022-11-23T01:41:39.893Z,96967.25
2022-11-23T01:44:25.559Z,96968.84
2022-11-23T01:46:58.990Z,96967.28
2022-11-23T01:49:30.135Z,96968.75
2022-11-23T01:52:02.672Z,96965.13
2022-11-23T01:54:45.446Z,96972.13
2022-11-23T01:57:35.836Z,96973.03
2022-11-23T02:00:02.775Z,96965.13
2022-11-23T02:02:47.515Z,96970.22
2022-11-23T02:05:18.548Z,96979.97
2022-11-23T02:07:48.107Z,96969.13
2022-11-23T02:10:16.066Z,96966.56
2022-11-23T02:12:42.846Z,96971.75
2022-11-23T02:15:12.300Z,96965.75
2022-11-23T02:17:41.992Z,96968.34
2022-11-23T02:20:12.478Z,96973.88
2022-11-23T02:23:04.378Z,96959.69
2022-11-23T02:25:45.325Z,96966.06
2022-11-23T02:28:15.754Z,96955.31
2022-11-23T02:30:44.219Z,96961.63
2022-11-23T02:33:10.925Z,96958.03
2022-11-23T02:35:49.152Z,96956.25
2022-11-23T02:38:17.024Z,96958.69
2022-11-23T02:40:44.265Z,96959.72
2022-11-23T02:43:11.008Z,96962.47
2022-11-23T02:45:51.488Z,96959.06
2022-11-23T02:48:19.169Z,96951.00
2022-11-23T02:50:46.132Z,96958.78
2022-11-23T02:53:13.451Z,96964.84
2022-11-23T02:55:40.378Z,96957.78
2022-11-23T02:58:07.490Z,96961.34
2022-11-23T03:00:34.765Z,96961.28
2022-11-23T03:03:02.789Z,96957.06
2022-11-23T03:05:29.700Z,96959.84
2022-11-23T03:07:56.388Z,96960.72
2022-11-23T03:10:23.296Z,96961.69
2022-11-23T03:12:56.657Z,96968.50
2022-11-23T03:15:24.842Z,96957.09
2022-11-23T03:17:52.525Z,96964.16
2022-11-23T03:20:20.345Z,96963.00
2022-11-23T03:22:49.800Z,96959.63
2022-11-23T03:25:18.172Z,96964.91
2022-11-23T03:27:47.525Z,96957.09
2022-11-23T03:30:14.722Z,96964.22
2022-11-23T03:32:41.562Z,96957.34
2022-11-23T03:35:09.015Z,96959.81
2022-11-23T03:37:43.554Z,96965.06
2022-11-23T03:40:10.620Z,96964.16
2022-11-23T03:43:09.425Z,96960.06
2022-11-23T03:45:36.147Z,96957.28
2022-11-23T03:48:02.886Z,96953.56
2022-11-23T03:50:30.708Z,96953.56
2022-11-23T03:52:57.662Z,96951.91
2022-11-23T03:55:24.444Z,96950.94
2022-11-23T03:57:59.454Z,96942.41
2022-11-23T04:00:29.473Z,96938.03
2022-11-23T04:02:56.632Z,96947.50
2022-11-23T04:05:46.035Z,96948.53
2022-11-23T04:08:31.579Z,96942.97
2022-11-23T04:10:59.898Z,96938.16
2022-11-23T04:13:38.628Z,96942.34
2022-11-23T04:16:07.234Z,96929.22
2022-11-23T04:18:34.115Z,96931.25
2022-11-23T04:21:00.860Z,96930.09
2022-11-23T04:23:28.468Z,96924.06
2022-11-23T04:25:55.335Z,96925.09
2022-11-23T04:28:23.530Z,96934.50
2022-11-23T04:30:51.496Z,96927.66
2022-11-23T04:33:18.794Z,96936.44
2022-11-23T04:35:45.496Z,96939.38
2022-11-23T04:38:12.661Z,96949.91
2022-11-23T04:40:39.384Z,96953.28
2022-11-23T04:43:09.459Z,96950.63
2022-11-23T04:45:39.471Z,96947.50
2022-11-23T04:48:10.002Z,96958.41
2022-11-23T04:50:40.383Z,96965.34
2022-11-23T04:53:08.977Z,96965.47
2022-11-23T04:55:47.192Z,96969.31
2022-11-23T04:58:14.509Z,96970.53
2022-11-23T05:00:41.338Z,96971.03
2022-11-23T05:03:10.116Z,96971.69
2022-11-23T05:05:40.487Z,96976.91
2022-11-23T05:08:08.797Z,96985.78
2022-11-23T05:10:48.874Z,96975.78
2022-11-23T05:13:15.866Z,96977.47
2022-11-23T05:15:43.568Z,96981.44
2022-11-23T05:18:12.521Z,96975.59
2022-11-23T05:20:40.144Z,96984.72
2022-11-23T05:23:08.135Z,96992.78
2022-11-23T05:25:38.545Z,96994.16
2022-11-23T05:28:38.056Z,96983.31
2022-11-23T05:30:54.575Z,96994.66
2022-11-23T05:33:21.321Z,96985.19
2022-11-23T05:35:48.092Z,96983.03
2022-11-23T05:38:15.600Z,96976.34
2022-11-23T05:40:45.102Z,96981.72
2022-11-23T05:43:13.839Z,96982.22
2022-11-23T05:45:42.763Z,96980.34
2022-11-23T05:48:10.343Z,96983.16
2022-11-23T05:50:52.669Z,96975.38
2022-11-23T05:53:29.051Z,96972.38
2022-11-23T05:56:03.513Z,96966.19
2022-11-23T05:58:35.076Z,96968.75
2022-11-23T06:01:02.418Z,96970.44
2022-11-23T06:03:33.790Z,96974.84
2022-11-23T06:06:00.551Z,96975.38
2022-11-23T06:08:34.305Z,96979.28
2022-11-23T06:11:01.976Z,96976.91
2022-11-23T06:13:31.056Z,96973.38
2022-11-23T06:15:58.063Z,96968.72
2022-11-23T06:18:32.155Z,96965.50
2022-11-23T06:21:02.282Z,96966.13
2022-11-23T06:23:29.334Z,96972.53
2022-11-23T06:26:02.198Z,96959.81
2022-11-23T06:28:32.021Z,96972.63
2022-11-23T06:31:04.608Z,96970.34
2022-11-23T06:33:33.077Z,96975.91
2022-11-23T06:36:02.474Z,96972.31
2022-11-23T06:38:38.246Z,96979.16
2022-11-23T06:41:12.269Z,96970.75
2022-11-23T06:43:40.074Z,96980.22
2022-11-23T06:46:07.893Z,96980.22
2022-11-23T06:48:39.261Z,96976.38
2022-11-23T06:51:07.307Z,96978.03
2022-11-23T06:53:36.268Z,96983.66
2022-11-23T06:56:06.249Z,96986.50
2022-11-23T06:58:33.275Z,96986.53
2022-11-23T07:01:08.771Z,96984.19
2022-11-23T07:03:48.196Z,96987.38
2022-11-23T07:06:21.960Z,96991.47
2022-11-23T07:08:54.731Z,96994.66
2022-11-23T07:11:35.278Z,96989.13
2022-11-23T07:14:01.975Z,96988.16
2022-11-23T07:16:30.219Z,96973.28
2022-11-23T07:18:58.039Z,96994.03
2022-11-23T07:21:25.831Z,96991.28
2022-11-23T07:23:52.614Z,96992.81
2022-11-23T07:26:19.603Z,96988.19
2022-11-23T07:28:46.390Z,96988.16
2022-11-23T07:31:16.098Z,96995.03
2022-11-23T07:33:46.664Z,96996.66
2022-11-23T07:36:14.204Z,97001.16
2022-11-23T07:38:42.719Z,96999.31
2022-11-23T07:41:10.141Z,96997.50
2022-11-23T07:44:00.304Z,96989.25
2022-11-23T07:46:27.250Z,96994.31
2022-11-23T07:48:55.147Z,97002.28
2022-11-23T07:51:21.812Z,97000.53
2022-11-23T07:53:48.455Z,96997.03
2022-11-23T07:56:15.149Z,97013.94
2022-11-23T07:58:41.830Z,97005.56
2022-11-23T08:01:08.525Z,97010.50
2022-11-23T08:03:35.356Z,97015.50
2022-11-23T08:06:02.075Z,97011.94
2022-11-23T08:08:28.840Z,97016.13
2022-11-23T08:10:55.532Z,97021.88
2022-11-23T08:13:22.692Z,97017.88
2022-11-23T08:15:54.898Z,97022.75
2022-11-23T08:18:23.957Z,97014.63
2022-11-23T08:20:50.682Z,97011.81
2022-11-23T08:23:17.493Z,97013.03
2022-11-23T08:25:44.377Z,97010.50
2022-11-23T08:28:11.232Z,97016.53
2022-11-23T08:30:38.489Z,97013.91
2022-11-23T08:33:06.514Z,97015.97
2022-11-23T08:35:34.715Z,97014.94
2022-11-23T08:38:01.716Z,97005.59
2022-11-23T08:40:28.381Z,97004.47
2022-11-23T08:42:55.396Z,97008.22
2022-11-23T08:45:22.944Z,97005.72
2022-11-23T08:47:50.860Z,97005.91
2022-11-23T08:50:18.049Z,97019.88
2022-11-23T08:52:44.685Z,97016.22
2022-11-23T08:55:11.639Z,97015.84
2022-11-23T08:57:41.390Z,97018.44
2022-11-23T09:00:08.845Z,97017.19
2022-11-23T09:02:35.499Z,97009.13
2022-11-23T09:05:02.209Z,97016.00
2022-11-23T09:07:29.019Z,97016.94
2022-11-23T09:09:55.713Z,97003.34
2022-11-23T09:12:22.407Z,97011.91
2022-11-23T09:14:49.084Z,97008.16
2022-11-23T09:17:15.747Z,97005.16
2022-11-23T09:19:42.450Z,97003.16
2022-11-23T09:22:09.268Z,97004.63
2022-11-23T09:24:36.280Z,97002.56
2022-11-23T09:27:03.393Z,96991.69
2022-11-23T09:29:30.038Z,96993.91
2022-11-23T09:31:56.715Z,96980.69
2022-11-23T09:34:23.479Z,96993.88
2022-11-23T09:36:50.303Z,96988.88
2022-11-23T09:39:16.938Z,96988.13
2022-11-23T09:42:25.374Z,96994.16
2022-11-23T09:44:57.602Z,96988.44
2022-11-23T09:47:33.182Z,96985.56
2022-11-23T09:50:11.286Z,96989.53
2022-11-23T09:52:44.597Z,96980.47
2022-11-23T09:55:21.219Z,96970.75
2022-11-23T09:57:52.133Z,96952.38
2022-11-23T10:00:23.648Z,96943.41
2022-11-23T10:02:50.678Z,96914.50
2022-11-23T10:05:21.059Z,96907.59
2022-11-23T10:08:03.627Z,96880.19
2022-11-23T10:10:43.458Z,96862.69
2022-11-23T10:13:31.288Z,96851.81
2022-11-23T10:16:15.648Z,96846.09
2022-11-23T10:19:01.740Z,96842.88
2022-11-23T10:21:59.702Z,96825.53
2022-11-23T10:24:42.613Z,96830.28
2022-11-23T10:27:16.433Z,96826.28
2022-11-23T10:29:43.990Z,96832.97
2022-11-23T10:32:26.451Z,96833.06
2022-11-23T10:34:59.125Z,96837.44
2022-11-23T10:37:26.132Z,96833.31
2022-11-23T10:39:52.832Z,96829.00
2022-11-23T10:42:28.746Z,96826.88
2022-11-23T10:44:57.143Z,96815.88
2022-11-23T10:47:50.287Z,96832.06
2022-11-23T10:50:27.881Z,96814.50
2022-11-23T10:52:57.738Z,96813.03
2022-11-23T10:55:28.260Z,96818.44
2022-11-23T10:57:55.167Z,96826.25
2022-11-23T11:00:30.098Z,96820.41
2022-11-23T11:02:59.409Z,96811.97
2022-11-23T11:06:06.935Z,96802.53
2022-11-23T11:08:20.970Z,96812.19
2022-11-23T11:10:50.137Z,96811.72
2022-11-23T11:13:22.893Z,96811.84
2022-11-23T11:16:21.851Z,96810.50
2022-11-23T11:18:48.610Z,96800.41
2022-11-23T11:21:20.666Z,96807.56
2022-11-23T11:23:59.576Z,96796.28
2022-11-23T11:26:28.764Z,96797.06
2022-11-23T11:29:00.154Z,96802.59
2022-11-23T11:31:37.376Z,96791.81
2022-11-23T11:34:03.997Z,96795.56
2022-11-23T11:36:38.284Z,96787.19
2022-11-23T11:39:20.965Z,96783.22
2022-11-23T11:41:51.175Z,96779.28
2022-11-23T11:44:24.259Z,96778.56
2022-11-23T11:47:04.377Z,96781.31
2022-11-23T11:49:35.386Z,96769.16
2022-11-23T11:52:10.749Z,96769.28
2022-11-23T11:54:45.116Z,96763.84
2022-11-23T11:57:19.585Z,96760.47
2022-11-23T11:59:49.964Z,96762.03
2022-11-23T12:02:19.667Z,96764.56
2022-11-23T12:05:13.979Z,96762.03
2022-11-23T12:07:51.166Z,96767.84
2022-11-23T12:10:53.559Z,96758.91
2022-11-23T12:13:25.027Z,96758.91
2022-11-23T12:16:10.655Z,96765.50
2022-11-23T12:18:45.348Z,96758.75
2022-11-23T12:21:27.516Z,96762.53
2022-11-23T12:24:08.624Z,96774.13
2022-11-23T12:26:54.018Z,96771.78
2022-11-23T12:29:55.099Z,96767.47
2022-11-23T12:32:40.489Z,96767.38
2022-11-23T12:35:40.648Z,96763.91
2022-11-23T12:38:23.951Z,96755.25
2022-11-23T12:41:17.318Z,96776.16
2022-11-23T12:44:14.714Z,96763.66
2022-11-23T12:46:44.308Z,96760.84
2022-11-23T12:49:20.369Z,96758.25
2022-11-23T12:51:53.223Z,96767.47
2022-11-23T12:54:42.635Z,96753.28
2022-11-23T12:57:22.262Z,96744.34
2022-11-23T12:59:58.118Z,96745.78
2022-11-23T13:03:05.176Z,96753.50
2022-11-23T13:06:04.357Z,96739.78
2022-11-23T13:08:46.396Z,96740.75
2022-11-23T13:11:40.402Z,96740.00
2022-11-23T13:14:51.945Z,96724.84
2022-11-23T13:17:49.568Z,96720.03
2022-11-23T13:20:16.224Z,96721.06
2022-11-23T13:22:48.735Z,96725.09
2022-11-23T13:25:22.580Z,96717.06
2022-11-23T13:27:49.219Z,96710.34
2022-11-23T13:30:25.152Z,96707.03
2022-11-23T13:33:00.027Z,96723.63
2022-11-23T13:35:30.746Z,96708.84
2022-11-23T13:37:57.417Z,96731.53
2022-11-23T13:40:35.368Z,96715.88
2022-11-23T13:43:29.358Z,96726.69
2022-11-23T13:46:28.909Z,96723.66
2022-11-23T13:49:00.605Z,96709.13
2022-11-23T13:51:29.463Z,96712.25
2022-11-23T13:53:59.191Z,96714.34
2022-11-23T13:56:34.677Z,96719.31
2022-11-23T13:59:20.945Z,96713.72
2022-11-23T14:02:00.214Z,96714.47
2022-11-23T14:04:30.990Z,96708.00
2022-11-23T14:07:19.989Z,96703.09
2022-11-23T14:09:54.830Z,96707.50
2022-11-23T14:12:42.105Z,96702.78
2022-11-23T14:15:23.706Z,96701.75
2022-11-23T14:18:12.083Z,96703.63
2022-11-23T14:21:01.818Z,96704.59
2022-11-23T14:23:45.284Z,96709.28
2022-11-23T14:26:29.878Z,96722.72
2022-11-23T14:28:59.639Z,96723.84
2022-11-23T14:31:47.769Z,96727.09
2022-11-23T14:34:23.557Z,96733.75
2022-11-23T14:37:28.984Z,96733.38
2022-11-23T14:40:30.868Z,96735.84
2022-11-23T14:42:57.926Z,96733.22
2022-11-23T14:45:33.952Z,96742.25
2022-11-23T14:48:20.013Z,96752.78
2022-11-23T14:50:55.692Z,96765.41
2022-11-23T14:53:25.715Z,96777.56
2022-11-23T14:55:52.454Z,96789.66
2022-11-23T14:58:19.620Z,96784.19
2022-11-23T15:00:48.035Z,96773.53
2022-11-23T15:03:49.484Z,96782.34
2022-11-23T15:06:15.482Z,96789.66
2022-11-23T15:09:04.158Z,96808.56
2022-11-23T15:11:34.249Z,96811.28
2022-11-23T15:14:03.683Z,96820.47
2022-11-23T15:16:39.764Z,96822.16
2022-11-23T15:19:29.442Z,96829.03
2022-11-23T15:21:57.107Z,96833.75
2022-11-23T15:24:26.374Z,96838.72
2022-11-23T15:26:55.074Z,96837.91
2022-11-23T15:29:34.768Z,96841.06
2022-11-23T15:34:52.950Z,96840.31
2022-11-23T15:37:20.332Z,96827.66
2022-11-23T15:39:47.915Z,96831.09
2022-11-23T15:42:18.384Z,96831.44
2022-11-23T15:44:50.514Z,96831.34
2022-11-23T15:47:27.035Z,96836.72
2022-11-23T15:50:08.848Z,96837.25
2022-11-23T15:52:37.762Z,96838.16
2022-11-23T15:55:09.771Z,96836.97
2022-11-23T15:57:39.415Z,96840.81
2022-11-23T16:00:07.460Z,96841.59
2022-11-23T16:02:39.927Z,96844.31
2022-11-23T16:05:16.959Z,96847.81
2022-11-23T16:07:59.389Z,96850.69
2022-11-23T16:10:27.476Z,96852.25
2022-11-23T16:12:57.575Z,96852.34
2022-11-23T16:15:29.055Z,96849.78
2022-11-23T16:17:55.816Z,96853.19
2022-11-23T16:20:24.484Z,96860.06
2022-11-23T16:22:52.886Z,96856.47
2022-11-23T16:25:33.753Z,96864.38
2022-11-23T16:28:01.789Z,96874.88
2022-11-23T16:30:39.745Z,96882.66
2022-11-23T16:33:13.834Z,96887.50
2022-11-23T16:35:40.615Z,96874.28
2022-11-23T16:38:07.458Z,96878.88
2022-11-23T16:40:34.162Z,96893.66
2022-11-23T16:43:00.938Z,96897.75
2022-11-23T16:45:27.682Z,96898.47
2022-11-23T16:47:57.047Z,96899.72
2022-11-23T16:50:24.297Z,96904.44
2022-11-23T16:52:51.459Z,96906.22
2022-11-23T16:55:18.274Z,96923.53
2022-11-23T16:57:45.988Z,96922.59
2022-11-23T17:00:20.679Z,96937.91
2022-11-23T17:02:47.415Z,96933.91
2022-11-23T17:05:20.030Z,96934.63
2022-11-23T17:07:47.234Z,96941.34
2022-11-23T17:10:15.037Z,96946.50
2022-11-23T17:12:50.822Z,96947.00
2022-11-23T17:15:23.057Z,96956.38
2022-11-23T17:17:50.143Z,96966.16
2022-11-23T17:20:18.156Z,96977.78
2022-11-23T17:22:45.334Z,96987.69
2022-11-23T17:25:14.938Z,96998.69
2022-11-23T17:27:43.608Z,97002.06
2022-11-23T17:30:17.009Z,97010.47
2022-11-23T17:32:43.726Z,97018.81
2022-11-23T17:35:10.565Z,97031.38
2022-11-23T17:37:37.401Z,97037.00
2022-11-23T17:40:04.604Z,97045.44
2022-11-23T17:42:31.236Z,97052.00
2022-11-23T17:44:58.069Z,97056.91
2022-11-23T17:47:28.720Z,97072.56
2022-11-23T17:49:55.954Z,97071.84
2022-11-23T17:52:23.280Z,97080.97
2022-11-23T17:54:51.156Z,97093.19
2022-11-23T17:57:22.595Z,97090.19
2022-11-23T17:59:49.865Z,97106.38
2022-11-23T18:02:16.560Z,97103.31
2022-11-23T18:04:43.244Z,97119.28
2022-11-23T18:07:13.448Z,97125.03
2022-11-23T18:09:41.032Z,97143.63
2022-11-23T18:12:09.070Z,97138.91
2022-11-23T18:14:36.071Z,97147.81
2022-11-23T18:17:03.012Z,97151.75
2022-11-23T18:19:30.059Z,97153.16
2022-11-23T18:21:57.286Z,97169.50
2022-11-23T18:24:24.109Z,97170.47
2022-11-23T18:26:50.771Z,97172.94
2022-11-23T18:29:17.623Z,97168.38
2022-11-23T18:31:44.386Z,97185.66
2022-11-23T18:34:11.208Z,97190.84
2022-11-23T18:36:37.856Z,97207.34
2022-11-23T18:39:04.669Z,97208.13
2022-11-23T18:41:31.484Z,97218.13
2022-11-23T18:43:58.229Z,97219.72
2022-11-23T18:46:25.022Z,97228.44
2022-11-23T18:48:51.862Z,97233.56
2022-11-23T18:51:18.894Z,97238.72
2022-11-23T18:53:47.601Z,97236.47
2022-11-23T18:56:14.541Z,97239.91
2022-11-23T18:58:42.451Z,97252.47
2022-11-23T19:01:12.749Z,97252.75
2022-11-23T19:03:41.425Z,97264.19
2022-11-23T19:06:08.849Z,97264.63
2022-11-23T19:08:40.486Z,97282.50
2022-11-23T19:11:17.592Z,97288.09
2022-11-23T19:13:46.223Z,97292.75
2022-11-23T19:16:21.774Z,97301.66
2022-11-23T19:18:58.012Z,97304.84
2022-11-23T19:21:28.888Z,97306.28
2022-11-23T19:23:57.193Z,97306.00
2022-11-23T19:26:25.591Z,97313.72
2022-11-23T19:28:54.191Z,97317.09
2022-11-23T19:31:27.070Z,97329.06
2022-11-23T19:33:57.709Z,97327.28
2022-11-23T19:36:25.600Z,97326.84
2022-11-23T19:38:52.522Z,97331.53
2022-11-23T19:41:22.945Z,97343.78
2022-11-23T19:43:56.165Z,97347.19
2022-11-23T19:46:23.785Z,97347.63
2022-11-23T19:48:50.557Z,97360.09
2022-11-23T19:51:19.418Z,97367.09
2022-11-23T19:53:47.621Z,97369.44
2022-11-23T19:56:14.296Z,97374.41
2022-11-23T19:58:41.936Z,97372.66
2022-11-23T20:01:17.080Z,97378.47
2022-11-23T20:03:48.964Z,97383.56
2022-11-23T20:06:16.930Z,97391.50
2022-11-23T20:08:44.546Z,97391.34
2022-11-23T20:11:16.465Z,97395.50
2022-11-23T20:13:43.635Z,97389.31
2022-11-23T20:16:13.404Z,97394.59
2022-11-23T20:18:41.051Z,97403.63
2022-11-23T20:21:12.232Z,97397.59
2022-11-23T20:23:39.399Z,97403.38
2022-11-23T20:26:06.363Z,97410.31
2022-11-23T20:28:33.333Z,97405.41
2022-11-23T20:31:07.692Z,97418.75
2022-11-23T20:33:34.385Z,97424.34
2022-11-23T20:36:14.180Z,97431.06
2022-11-23T20:38:41.283Z,97430.22
2022-11-23T20:41:13.723Z,97437.91
2022-11-23T20:43:40.608Z,97443.19
2022-11-23T20:46:07.707Z,97450.38
2022-11-23T20:48:35.672Z,97446.16
2022-11-23T20:51:07.583Z,97452.25
2022-11-23T20:53:37.116Z,97455.59
2022-11-23T20:56:08.064Z,97464.38
2022-11-23T20:58:35.274Z,97466.03
2022-11-23T21:01:07.058Z,97466.75
2022-11-23T21:03:35.450Z,97466.94
2022-11-23T21:06:04.464Z,97471.41
2022-11-23T21:08:34.869Z,97484.41
2022-11-23T21:11:31.527Z,97482.00
2022-11-23T21:14:11.132Z,97495.81
2022-11-23T21:17:00.972Z,97496.75
2022-11-23T21:19:33.117Z,97505.44
2022-11-23T21:22:05.059Z,97511.66
2022-11-23T21:24:32.499Z,97514.75
2022-11-23T21:26:59.320Z,97520.94
2022-11-23T21:29:26.219Z,97510.22
2022-11-23T21:31:53.074Z,97511.31
2022-11-23T21:34:30.434Z,97519.56
2022-11-23T21:36:58.159Z,97511.84
2022-11-23T21:39:25.206Z,97516.66
2022-11-23T21:41:53.604Z,97515.75
2022-11-23T21:44:24.780Z,97528.31
2022-11-23T21:46:51.669Z,97529.81
2022-11-23T21:49:18.428Z,97527.81
2022-11-23T21:51:45.913Z,97531.88
2022-11-23T21:54:16.481Z,97528.13
2022-11-23T21:56:45.254Z,97525.09
2022-11-23T21:59:12.497Z,97541.13
2022-11-23T22:01:40.147Z,97541.28
2022-11-23T22:04:10.281Z,97540.28
2022-11-23T22:06:38.957Z,97545.34
2022-11-23T22:09:35.182Z,97534.91
2022-11-23T22:12:01.997Z,97548.06
2022-11-23T22:14:28.671Z,97557.38
2022-11-23T22:16:56.644Z,97555.00
2022-11-23T22:19:23.376Z,97557.91
2022-11-23T22:21:49.997Z,97560.81
2022-11-23T22:24:18.535Z,97562.28
2022-11-23T22:26:46.204Z,97563.41
2022-11-23T22:29:13.155Z,97569.31
2022-11-23T22:31:40.525Z,97573.97
2022-11-23T22:34:10.011Z,97578.94
2022-11-23T22:36:36.706Z,97578.63
2022-11-23T22:39:06.022Z,97582.97
2022-11-23T22:41:36.375Z,97575.16
2022-11-23T22:44:04.716Z,97585.34
2022-11-23T22:46:31.431Z,97584.53
2022-11-23T22:48:59.354Z,97591.59
2022-11-23T22:51:28.396Z,97583.72
2022-11-23T22:53:59.681Z,97586.91
2022-11-23T22:56:27.436Z,97586.00
2022-11-23T22:58:54.244Z,97599.19
2022-11-23T23:01:23.844Z,97599.88
2022-11-23T23:03:55.430Z,97600.78
2022-11-23T23:06:24.996Z,97609.41
2022-11-23T23:08:56.801Z,97612.50
2022-11-23T23:11:25.225Z,97614.59
2022-11-23T23:13:52.837Z,97618.41
2022-11-23T23:16:19.744Z,97614.09
2022-11-23T23:18:46.464Z,97616.66
2022-11-23T23:21:15.783Z,97608.81
2022-11-23T23:23:47.756Z,97620.91
2022-11-23T23:26:18.663Z,97619.53
2022-11-23T23:28:45.827Z,97618.75
2022-11-23T23:31:16.090Z,97619.72
2022-11-23T23:33:43.871Z,97622.94
2022-11-23T23:36:19.692Z,97626.91
2022-11-23T23:38:46.816Z,97628.56
2022-11-23T23:41:14.522Z,97629.94
2022-11-23T23:43:41.612Z,97645.84
2022-11-23T23:46:11.482Z,97639.44
2022-11-23T23:48:39.600Z,97644.34
2022-11-23T23:51:20.951Z,97644.34
2022-11-23T23:53:47.930Z,97651.56
2022-11-23T23:56:25.834Z,97664.00
2022-11-23T23:58:54.607Z,97666.78
